sensor_id;sensor_type;location;lat;lon;timestamp;P1;durP1;ratioP1;P2;durP2;ratioP2
23506;SDS011;11930;53.076;18.250;2023-07-13T00:00:37;10.30;;;7.00;;
23506;SDS011;11930;53.076;18.250;2023-07-13T00:03:23;9.70;;;7.22;;
23506;SDS011;11930;53.076;18.250;2023-07-13T00:05:57;10.85;;;8.00;;
23506;SDS011;11930;53.076;18.250;2023-07-13T00:08:24;10.13;;;7.45;;
23506;SDS011;11930;53.076;18.250;2023-07-13T00:10:51;9.43;;;6.53;;
23506;SDS011;11930;53.076;18.250;2023-07-13T00:13:20;8.88;;;6.43;;
23506;SDS011;11930;53.076;18.250;2023-07-13T00:15:46;9.35;;;6.43;;
23506;SDS011;11930;53.076;18.250;2023-07-13T00:18:12;8.27;;;5.55;;
23506;SDS011;11930;53.076;18.250;2023-07-13T00:20:38;6.88;;;5.20;;
23506;SDS011;11930;53.076;18.250;2023-07-13T00:23:04;7.68;;;6.10;;
23506;SDS011;11930;53.076;18.250;2023-07-13T00:25:30;9.45;;;6.05;;
23506;SDS011;11930;53.076;18.250;2023-07-13T00:27:56;9.18;;;5.90;;
23506;SDS011;11930;53.076;18.250;2023-07-13T00:30:23;7.88;;;5.72;;
23506;SDS011;11930;53.076;18.250;2023-07-13T00:32:49;8.70;;;6.45;;
23506;SDS011;11930;53.076;18.250;2023-07-13T00:35:16;10.88;;;6.28;;
23506;SDS011;11930;53.076;18.250;2023-07-13T00:37:42;8.27;;;6.72;;
23506;SDS011;11930;53.076;18.250;2023-07-13T00:40:10;10.40;;;7.88;;
23506;SDS011;11930;53.076;18.250;2023-07-13T00:42:37;11.57;;;8.30;;
23506;SDS011;11930;53.076;18.250;2023-07-13T00:45:05;17.02;;;8.82;;
23506;SDS011;11930;53.076;18.250;2023-07-13T00:47:38;12.05;;;8.73;;
23506;SDS011;11930;53.076;18.250;2023-07-13T00:50:05;18.35;;;8.20;;
23506;SDS011;11930;53.076;18.250;2023-07-13T00:52:36;13.63;;;8.40;;
23506;SDS011;11930;53.076;18.250;2023-07-13T00:55:06;16.33;;;9.07;;
23506;SDS011;11930;53.076;18.250;2023-07-13T00:57:34;14.88;;;8.27;;
23506;SDS011;11930;53.076;18.250;2023-07-13T01:00:01;12.80;;;8.27;;
23506;SDS011;11930;53.076;18.250;2023-07-13T01:02:38;10.13;;;7.68;;
23506;SDS011;11930;53.076;18.250;2023-07-13T01:05:10;12.18;;;8.00;;
23506;SDS011;11930;53.076;18.250;2023-07-13T01:07:37;12.57;;;7.45;;
23506;SDS011;11930;53.076;18.250;2023-07-13T01:10:06;9.90;;;7.85;;
23506;SDS011;11930;53.076;18.250;2023-07-13T01:12:33;10.65;;;8.10;;
23506;SDS011;11930;53.076;18.250;2023-07-13T01:15:00;10.90;;;7.38;;
23506;SDS011;11930;53.076;18.250;2023-07-13T01:17:27;9.68;;;7.28;;
23506;SDS011;11930;53.076;18.250;2023-07-13T01:19:54;10.52;;;7.40;;
23506;SDS011;11930;53.076;18.250;2023-07-13T01:22:23;10.45;;;7.88;;
23506;SDS011;11930;53.076;18.250;2023-07-13T01:24:52;9.23;;;6.95;;
23506;SDS011;11930;53.076;18.250;2023-07-13T01:27:23;11.18;;;6.72;;
23506;SDS011;11930;53.076;18.250;2023-07-13T01:29:51;8.73;;;6.75;;
23506;SDS011;11930;53.076;18.250;2023-07-13T01:32:21;10.63;;;7.55;;
23506;SDS011;11930;53.076;18.250;2023-07-13T01:34:50;11.40;;;6.68;;
23506;SDS011;11930;53.076;18.250;2023-07-13T01:37:19;9.00;;;6.63;;
23506;SDS011;11930;53.076;18.250;2023-07-13T01:39:46;8.43;;;5.93;;
23506;SDS011;11930;53.076;18.250;2023-07-13T01:42:13;8.27;;;6.00;;
23506;SDS011;11930;53.076;18.250;2023-07-13T01:44:58;8.82;;;6.35;;
23506;SDS011;11930;53.076;18.250;2023-07-13T01:47:24;7.88;;;5.97;;
23506;SDS011;11930;53.076;18.250;2023-07-13T01:49:51;9.63;;;6.95;;
23506;SDS011;11930;53.076;18.250;2023-07-13T01:52:17;10.25;;;7.35;;
23506;SDS011;11930;53.076;18.250;2023-07-13T01:54:43;8.95;;;7.32;;
23506;SDS011;11930;53.076;18.250;2023-07-13T01:57:09;10.35;;;7.18;;
23506;SDS011;11930;53.076;18.250;2023-07-13T01:59:35;8.82;;;6.60;;
23506;SDS011;11930;53.076;18.250;2023-07-13T02:02:01;8.55;;;6.07;;
23506;SDS011;11930;53.076;18.250;2023-07-13T02:04:28;7.70;;;6.30;;
23506;SDS011;11930;53.076;18.250;2023-07-13T02:06:54;12.43;;;7.45;;
23506;SDS011;11930;53.076;18.250;2023-07-13T02:09:20;8.07;;;6.35;;
23506;SDS011;11930;53.076;18.250;2023-07-13T02:11:47;7.85;;;6.50;;
23506;SDS011;11930;53.076;18.250;2023-07-13T02:14:14;8.82;;;5.88;;
23506;SDS011;11930;53.076;18.250;2023-07-13T02:16:41;8.57;;;6.40;;
23506;SDS011;11930;53.076;18.250;2023-07-13T02:19:07;8.70;;;6.40;;
23506;SDS011;11930;53.076;18.250;2023-07-13T02:21:34;11.65;;;6.70;;
23506;SDS011;11930;53.076;18.250;2023-07-13T02:24:00;7.68;;;6.10;;
23506;SDS011;11930;53.076;18.250;2023-07-13T02:26:26;9.23;;;6.60;;
23506;SDS011;11930;53.076;18.250;2023-07-13T02:28:53;8.55;;;6.13;;
23506;SDS011;11930;53.076;18.250;2023-07-13T02:31:19;8.00;;;6.38;;
23506;SDS011;11930;53.076;18.250;2023-07-13T02:33:45;8.30;;;6.55;;
23506;SDS011;11930;53.076;18.250;2023-07-13T02:36:11;8.15;;;5.68;;
23506;SDS011;11930;53.076;18.250;2023-07-13T02:38:43;8.25;;;6.13;;
23506;SDS011;11930;53.076;18.250;2023-07-13T02:41:09;7.20;;;5.97;;
23506;SDS011;11930;53.076;18.250;2023-07-13T02:43:38;8.10;;;6.53;;
23506;SDS011;11930;53.076;18.250;2023-07-13T02:46:08;11.38;;;6.72;;
23506;SDS011;11930;53.076;18.250;2023-07-13T02:48:35;8.60;;;6.43;;
23506;SDS011;11930;53.076;18.250;2023-07-13T02:51:02;8.00;;;6.60;;
23506;SDS011;11930;53.076;18.250;2023-07-13T02:53:28;8.60;;;7.00;;
23506;SDS011;11930;53.076;18.250;2023-07-13T02:55:56;8.73;;;7.03;;
23506;SDS011;11930;53.076;18.250;2023-07-13T02:58:22;8.77;;;7.25;;
23506;SDS011;11930;53.076;18.250;2023-07-13T03:00:48;8.18;;;6.55;;
23506;SDS011;11930;53.076;18.250;2023-07-13T03:03:16;10.52;;;7.25;;
23506;SDS011;11930;53.076;18.250;2023-07-13T03:05:43;11.10;;;7.10;;
23506;SDS011;11930;53.076;18.250;2023-07-13T03:08:17;10.20;;;7.60;;
23506;SDS011;11930;53.076;18.250;2023-07-13T03:10:44;8.73;;;6.88;;
23506;SDS011;11930;53.076;18.250;2023-07-13T03:13:11;9.57;;;7.00;;
23506;SDS011;11930;53.076;18.250;2023-07-13T03:15:38;8.07;;;6.60;;
23506;SDS011;11930;53.076;18.250;2023-07-13T03:18:04;8.45;;;6.45;;
23506;SDS011;11930;53.076;18.250;2023-07-13T03:20:32;8.57;;;6.05;;
23506;SDS011;11930;53.076;18.250;2023-07-13T03:23:00;8.77;;;7.28;;
23506;SDS011;11930;53.076;18.250;2023-07-13T03:25:27;8.57;;;6.80;;
23506;SDS011;11930;53.076;18.250;2023-07-13T03:27:54;9.73;;;7.43;;
23506;SDS011;11930;53.076;18.250;2023-07-13T03:30:21;8.63;;;7.30;;
23506;SDS011;11930;53.076;18.250;2023-07-13T03:32:47;10.02;;;7.53;;
23506;SDS011;11930;53.076;18.250;2023-07-13T03:35:13;8.23;;;6.95;;
23506;SDS011;11930;53.076;18.250;2023-07-13T03:37:39;9.15;;;7.40;;
23506;SDS011;11930;53.076;18.250;2023-07-13T03:40:10;8.95;;;7.47;;
23506;SDS011;11930;53.076;18.250;2023-07-13T03:42:38;8.93;;;7.50;;
23506;SDS011;11930;53.076;18.250;2023-07-13T03:45:04;9.15;;;7.88;;
23506;SDS011;11930;53.076;18.250;2023-07-13T03:47:32;9.77;;;7.85;;
23506;SDS011;11930;53.076;18.250;2023-07-13T03:50:00;15.25;;;8.35;;
23506;SDS011;11930;53.076;18.250;2023-07-13T03:52:26;10.25;;;8.77;;
23506;SDS011;11930;53.076;18.250;2023-07-13T03:54:52;9.93;;;8.70;;
23506;SDS011;11930;53.076;18.250;2023-07-13T03:57:20;10.60;;;9.02;;
23506;SDS011;11930;53.076;18.250;2023-07-13T03:59:46;10.75;;;9.00;;
23506;SDS011;11930;53.076;18.250;2023-07-13T04:02:12;11.18;;;9.02;;
23506;SDS011;11930;53.076;18.250;2023-07-13T04:04:38;9.80;;;8.77;;
23506;SDS011;11930;53.076;18.250;2023-07-13T04:07:06;13.95;;;9.48;;
23506;SDS011;11930;53.076;18.250;2023-07-13T04:09:34;12.40;;;9.48;;
23506;SDS011;11930;53.076;18.250;2023-07-13T04:12:00;13.05;;;9.60;;
23506;SDS011;11930;53.076;18.250;2023-07-13T04:14:27;12.50;;;9.75;;
23506;SDS011;11930;53.076;18.250;2023-07-13T04:16:53;14.40;;;10.93;;
23506;SDS011;11930;53.076;18.250;2023-07-13T04:19:20;13.13;;;9.38;;
23506;SDS011;11930;53.076;18.250;2023-07-13T04:21:46;11.73;;;9.73;;
23506;SDS011;11930;53.076;18.250;2023-07-13T04:24:13;14.95;;;10.25;;
23506;SDS011;11930;53.076;18.250;2023-07-13T04:26:39;15.93;;;10.82;;
23506;SDS011;11930;53.076;18.250;2023-07-13T04:29:07;17.80;;;11.95;;
23506;SDS011;11930;53.076;18.250;2023-07-13T04:31:34;18.10;;;11.00;;
23506;SDS011;11930;53.076;18.250;2023-07-13T04:34:01;16.50;;;11.65;;
23506;SDS011;11930;53.076;18.250;2023-07-13T04:36:28;16.00;;;11.05;;
23506;SDS011;11930;53.076;18.250;2023-07-13T04:38:54;16.05;;;10.43;;
23506;SDS011;11930;53.076;18.250;2023-07-13T04:41:21;16.30;;;11.25;;
23506;SDS011;11930;53.076;18.250;2023-07-13T04:43:48;14.65;;;11.13;;
23506;SDS011;11930;53.076;18.250;2023-07-13T04:46:15;18.02;;;11.23;;
23506;SDS011;11930;53.076;18.250;2023-07-13T04:48:44;15.40;;;11.43;;
23506;SDS011;11930;53.076;18.250;2023-07-13T04:51:10;13.95;;;10.82;;
23506;SDS011;11930;53.076;18.250;2023-07-13T04:53:37;12.50;;;9.32;;
23506;SDS011;11930;53.076;18.250;2023-07-13T04:56:04;15.25;;;9.52;;
23506;SDS011;11930;53.076;18.250;2023-07-13T04:58:30;15.70;;;9.38;;
23506;SDS011;11930;53.076;18.250;2023-07-13T05:01:03;11.02;;;9.43;;
23506;SDS011;11930;53.076;18.250;2023-07-13T05:03:34;11.18;;;9.15;;
23506;SDS011;11930;53.076;18.250;2023-07-13T05:06:02;10.52;;;8.88;;
23506;SDS011;11930;53.076;18.250;2023-07-13T05:08:30;12.30;;;9.73;;
23506;SDS011;11930;53.076;18.250;2023-07-13T05:10:56;12.00;;;9.18;;
23506;SDS011;11930;53.076;18.250;2023-07-13T05:13:24;13.20;;;9.23;;
23506;SDS011;11930;53.076;18.250;2023-07-13T05:16:00;14.32;;;10.25;;
23506;SDS011;11930;53.076;18.250;2023-07-13T05:18:28;11.68;;;9.13;;
23506;SDS011;11930;53.076;18.250;2023-07-13T05:21:01;13.52;;;9.00;;
23506;SDS011;11930;53.076;18.250;2023-07-13T05:23:30;11.85;;;9.27;;
23506;SDS011;11930;53.076;18.250;2023-07-13T05:25:57;12.35;;;9.10;;
23506;SDS011;11930;53.076;18.250;2023-07-13T05:28:24;11.98;;;9.30;;
23506;SDS011;11930;53.076;18.250;2023-07-13T05:30:51;10.93;;;9.07;;
23506;SDS011;11930;53.076;18.250;2023-07-13T05:33:17;12.85;;;9.35;;
23506;SDS011;11930;53.076;18.250;2023-07-13T05:35:43;16.63;;;9.90;;
23506;SDS011;11930;53.076;18.250;2023-07-13T05:38:09;13.57;;;10.55;;
23506;SDS011;11930;53.076;18.250;2023-07-13T05:40:35;11.63;;;9.40;;
23506;SDS011;11930;53.076;18.250;2023-07-13T05:43:01;12.60;;;8.48;;
23506;SDS011;11930;53.076;18.250;2023-07-13T05:45:28;11.18;;;8.40;;
23506;SDS011;11930;53.076;18.250;2023-07-13T05:47:54;9.05;;;6.95;;
23506;SDS011;11930;53.076;18.250;2023-07-13T05:50:20;11.93;;;6.32;;
23506;SDS011;11930;53.076;18.250;2023-07-13T05:52:46;6.35;;;4.55;;
23506;SDS011;11930;53.076;18.250;2023-07-13T05:55:12;7.65;;;4.18;;
23506;SDS011;11930;53.076;18.250;2023-07-13T05:57:39;10.05;;;4.38;;
23506;SDS011;11930;53.076;18.250;2023-07-13T06:00:05;5.47;;;3.58;;
23506;SDS011;11930;53.076;18.250;2023-07-13T06:02:37;5.68;;;3.90;;
23506;SDS011;11930;53.076;18.250;2023-07-13T06:05:03;7.45;;;4.07;;
23506;SDS011;11930;53.076;18.250;2023-07-13T06:07:30;7.78;;;3.65;;
23506;SDS011;11930;53.076;18.250;2023-07-13T06:09:56;7.88;;;4.15;;
23506;SDS011;11930;53.076;18.250;2023-07-13T06:12:22;11.48;;;4.13;;
23506;SDS011;11930;53.076;18.250;2023-07-13T06:14:48;8.27;;;4.43;;
23506;SDS011;11930;53.076;18.250;2023-07-13T06:17:14;6.55;;;3.72;;
23506;SDS011;11930;53.076;18.250;2023-07-13T06:19:40;6.65;;;3.22;;
23506;SDS011;11930;53.076;18.250;2023-07-13T06:22:06;5.55;;;3.30;;
23506;SDS011;11930;53.076;18.250;2023-07-13T06:24:32;9.82;;;3.78;;
23506;SDS011;11930;53.076;18.250;2023-07-13T06:26:58;7.18;;;3.88;;
23506;SDS011;11930;53.076;18.250;2023-07-13T06:29:24;6.50;;;3.72;;
23506;SDS011;11930;53.076;18.250;2023-07-13T06:31:51;8.43;;;4.22;;
23506;SDS011;11930;53.076;18.250;2023-07-13T06:34:17;4.30;;;3.38;;
23506;SDS011;11930;53.076;18.250;2023-07-13T06:36:43;6.68;;;3.08;;
23506;SDS011;11930;53.076;18.250;2023-07-13T06:39:09;5.38;;;3.05;;
23506;SDS011;11930;53.076;18.250;2023-07-13T06:41:36;5.32;;;3.03;;
23506;SDS011;11930;53.076;18.250;2023-07-13T06:44:06;4.53;;;2.47;;
23506;SDS011;11930;53.076;18.250;2023-07-13T06:46:33;4.97;;;3.28;;
23506;SDS011;11930;53.076;18.250;2023-07-13T06:48:59;7.97;;;3.20;;
23506;SDS011;11930;53.076;18.250;2023-07-13T06:51:25;6.18;;;2.67;;
23506;SDS011;11930;53.076;18.250;2023-07-13T06:53:51;6.05;;;2.83;;
23506;SDS011;11930;53.076;18.250;2023-07-13T06:56:17;7.40;;;2.97;;
23506;SDS011;11930;53.076;18.250;2023-07-13T06:58:43;6.40;;;3.20;;
23506;SDS011;11930;53.076;18.250;2023-07-13T07:01:10;5.18;;;2.90;;
23506;SDS011;11930;53.076;18.250;2023-07-13T07:03:35;7.57;;;3.30;;
23506;SDS011;11930;53.076;18.250;2023-07-13T07:06:16;5.05;;;2.70;;
23506;SDS011;11930;53.076;18.250;2023-07-13T07:08:43;4.22;;;2.35;;
23506;SDS011;11930;53.076;18.250;2023-07-13T07:11:18;5.22;;;2.75;;
23506;SDS011;11930;53.076;18.250;2023-07-13T07:13:48;7.25;;;2.60;;
23506;SDS011;11930;53.076;18.250;2023-07-13T07:16:15;5.57;;;2.55;;
23506;SDS011;11930;53.076;18.250;2023-07-13T07:18:41;5.53;;;2.75;;
23506;SDS011;11930;53.076;18.250;2023-07-13T07:21:07;9.55;;;3.13;;
23506;SDS011;11930;53.076;18.250;2023-07-13T07:23:33;7.90;;;2.72;;
23506;SDS011;11930;53.076;18.250;2023-07-13T07:26:00;5.00;;;2.58;;
23506;SDS011;11930;53.076;18.250;2023-07-13T07:28:26;5.35;;;2.33;;
23506;SDS011;11930;53.076;18.250;2023-07-13T07:30:54;8.77;;;2.85;;
23506;SDS011;11930;53.076;18.250;2023-07-13T07:33:21;4.97;;;2.67;;
23506;SDS011;11930;53.076;18.250;2023-07-13T07:35:48;6.10;;;2.08;;
23506;SDS011;11930;53.076;18.250;2023-07-13T07:38:14;4.70;;;2.22;;
23506;SDS011;11930;53.076;18.250;2023-07-13T07:40:41;4.93;;;2.45;;
23506;SDS011;11930;53.076;18.250;2023-07-13T07:43:08;5.63;;;2.13;;
23506;SDS011;11930;53.076;18.250;2023-07-13T07:45:35;4.93;;;2.40;;
23506;SDS011;11930;53.076;18.250;2023-07-13T07:48:03;4.68;;;2.15;;
23506;SDS011;11930;53.076;18.250;2023-07-13T07:50:30;5.90;;;2.30;;
23506;SDS011;11930;53.076;18.250;2023-07-13T07:52:56;3.28;;;2.10;;
23506;SDS011;11930;53.076;18.250;2023-07-13T07:55:23;5.40;;;1.90;;
23506;SDS011;11930;53.076;18.250;2023-07-13T07:57:51;7.20;;;2.50;;
23506;SDS011;11930;53.076;18.250;2023-07-13T08:00:17;4.05;;;2.30;;
23506;SDS011;11930;53.076;18.250;2023-07-13T08:02:46;5.65;;;2.40;;
23506;SDS011;11930;53.076;18.250;2023-07-13T08:05:13;5.43;;;2.30;;
23506;SDS011;11930;53.076;18.250;2023-07-13T08:07:40;3.75;;;2.00;;
23506;SDS011;11930;53.076;18.250;2023-07-13T08:10:06;6.47;;;2.22;;
23506;SDS011;11930;53.076;18.250;2023-07-13T08:12:34;5.85;;;2.40;;
23506;SDS011;11930;53.076;18.250;2023-07-13T08:15:00;6.95;;;2.13;;
23506;SDS011;11930;53.076;18.250;2023-07-13T08:17:27;4.30;;;1.92;;
23506;SDS011;11930;53.076;18.250;2023-07-13T08:19:53;5.70;;;2.00;;
23506;SDS011;11930;53.076;18.250;2023-07-13T08:22:19;5.53;;;2.20;;
23506;SDS011;11930;53.076;18.250;2023-07-13T08:24:45;4.68;;;2.50;;
23506;SDS011;11930;53.076;18.250;2023-07-13T08:27:12;5.57;;;2.40;;
23506;SDS011;11930;53.076;18.250;2023-07-13T08:29:39;6.43;;;2.42;;
23506;SDS011;11930;53.076;18.250;2023-07-13T08:32:06;6.25;;;2.47;;
23506;SDS011;11930;53.076;18.250;2023-07-13T08:34:36;4.97;;;2.50;;
23506;SDS011;11930;53.076;18.250;2023-07-13T08:37:02;3.78;;;2.17;;
23506;SDS011;11930;53.076;18.250;2023-07-13T08:39:30;7.00;;;2.35;;
23506;SDS011;11930;53.076;18.250;2023-07-13T08:41:59;4.97;;;2.30;;
23506;SDS011;11930;53.076;18.250;2023-07-13T08:47:22;5.53;;;2.05;;
23506;SDS011;11930;53.076;18.250;2023-07-13T08:49:49;4.50;;;2.45;;
23506;SDS011;11930;53.076;18.250;2023-07-13T08:52:26;5.35;;;2.28;;
23506;SDS011;11930;53.076;18.250;2023-07-13T08:54:56;4.90;;;2.60;;
23506;SDS011;11930;53.076;18.250;2023-07-13T08:57:30;4.90;;;2.13;;
23506;SDS011;11930;53.076;18.250;2023-07-13T08:59:58;7.20;;;2.47;;
23506;SDS011;11930;53.076;18.250;2023-07-13T09:02:26;4.88;;;2.50;;
23506;SDS011;11930;53.076;18.250;2023-07-13T09:05:08;7.85;;;2.55;;
23506;SDS011;11930;53.076;18.250;2023-07-13T09:10:23;4.38;;;2.00;;
23506;SDS011;11930;53.076;18.250;2023-07-13T09:13:00;5.65;;;2.30;;
23506;SDS011;11930;53.076;18.250;2023-07-13T09:15:41;5.05;;;2.60;;
23506;SDS011;11930;53.076;18.250;2023-07-13T09:20:48;4.03;;;2.25;;
23506;SDS011;11930;53.076;18.250;2023-07-13T09:23:22;5.82;;;2.30;;
23506;SDS011;11930;53.076;18.250;2023-07-13T09:25:50;5.88;;;2.35;;
23506;SDS011;11930;53.076;18.250;2023-07-13T09:28:23;5.47;;;2.60;;
23506;SDS011;11930;53.076;18.250;2023-07-13T09:30:56;4.88;;;2.40;;
23506;SDS011;11930;53.076;18.250;2023-07-13T09:33:29;5.55;;;2.80;;
23506;SDS011;11930;53.076;18.250;2023-07-13T09:35:59;3.95;;;2.35;;
23506;SDS011;11930;53.076;18.250;2023-07-13T09:38:27;5.68;;;2.50;;
23506;SDS011;11930;53.076;18.250;2023-07-13T09:44:02;4.88;;;2.45;;
23506;SDS011;11930;53.076;18.250;2023-07-13T09:46:35;5.75;;;2.85;;
23506;SDS011;11930;53.076;18.250;2023-07-13T09:49:02;8.85;;;3.00;;
23506;SDS011;11930;53.076;18.250;2023-07-13T09:51:28;7.88;;;3.15;;
23506;SDS011;11930;53.076;18.250;2023-07-13T09:53:54;8.68;;;3.80;;
23506;SDS011;11930;53.076;18.250;2023-07-13T09:56:21;8.50;;;3.60;;
23506;SDS011;11930;53.076;18.250;2023-07-13T09:58:49;16.17;;;5.90;;
23506;SDS011;11930;53.076;18.250;2023-07-13T10:01:15;11.55;;;3.83;;
23506;SDS011;11930;53.076;18.250;2023-07-13T10:03:56;7.10;;;2.78;;
23506;SDS011;11930;53.076;18.250;2023-07-13T10:06:22;5.00;;;2.35;;
23506;SDS011;11930;53.076;18.250;2023-07-13T10:08:51;5.15;;;2.60;;
23506;SDS011;11930;53.076;18.250;2023-07-13T10:11:27;4.50;;;2.67;;
23506;SDS011;11930;53.076;18.250;2023-07-13T10:13:56;4.45;;;3.00;;
23506;SDS011;11930;53.076;18.250;2023-07-13T10:16:25;5.82;;;3.10;;
23506;SDS011;11930;53.076;18.250;2023-07-13T10:18:59;5.47;;;3.30;;
23506;SDS011;11930;53.076;18.250;2023-07-13T10:21:54;4.22;;;3.30;;
23506;SDS011;11930;53.076;18.250;2023-07-13T10:24:47;5.68;;;3.72;;
23506;SDS011;11930;53.076;18.250;2023-07-13T10:27:20;5.47;;;3.90;;
23506;SDS011;11930;53.076;18.250;2023-07-13T10:29:58;10.02;;;3.80;;
23506;SDS011;11930;53.076;18.250;2023-07-13T10:32:45;6.47;;;4.07;;
23506;SDS011;11930;53.076;18.250;2023-07-13T10:35:14;5.88;;;4.00;;
23506;SDS011;11930;53.076;18.250;2023-07-13T10:37:53;6.95;;;4.72;;
23506;SDS011;11930;53.076;18.250;2023-07-13T10:40:34;7.40;;;4.97;;
23506;SDS011;11930;53.076;18.250;2023-07-13T10:43:18;8.10;;;4.40;;
23506;SDS011;11930;53.076;18.250;2023-07-13T10:45:52;8.73;;;4.18;;
23506;SDS011;11930;53.076;18.250;2023-07-13T10:48:20;6.60;;;4.35;;
23506;SDS011;11930;53.076;18.250;2023-07-13T10:50:49;9.13;;;4.15;;
23506;SDS011;11930;53.076;18.250;2023-07-13T10:53:31;7.20;;;4.28;;
23506;SDS011;11930;53.076;18.250;2023-07-13T10:56:03;5.35;;;3.75;;
23506;SDS011;11930;53.076;18.250;2023-07-13T10:58:40;6.45;;;3.80;;
23506;SDS011;11930;53.076;18.250;2023-07-13T11:01:10;7.10;;;4.05;;
23506;SDS011;11930;53.076;18.250;2023-07-13T11:06:31;6.88;;;3.95;;
23506;SDS011;11930;53.076;18.250;2023-07-13T11:09:19;8.00;;;4.28;;
23506;SDS011;11930;53.076;18.250;2023-07-13T11:12:06;5.10;;;3.70;;
23506;SDS011;11930;53.076;18.250;2023-07-13T11:17:35;5.40;;;3.53;;
23506;SDS011;11930;53.076;18.250;2023-07-13T11:22:42;5.72;;;3.90;;
23506;SDS011;11930;53.076;18.250;2023-07-13T11:27:46;5.68;;;3.20;;
23506;SDS011;11930;53.076;18.250;2023-07-13T11:36:00;3.85;;;2.58;;
23506;SDS011;11930;53.076;18.250;2023-07-13T11:38:38;5.05;;;2.60;;
23506;SDS011;11930;53.076;18.250;2023-07-13T11:41:11;4.45;;;2.70;;
23506;SDS011;11930;53.076;18.250;2023-07-13T11:43:45;4.78;;;2.47;;
23506;SDS011;11930;53.076;18.250;2023-07-13T11:46:15;3.35;;;2.60;;
23506;SDS011;11930;53.076;18.250;2023-07-13T11:48:49;3.40;;;2.55;;
23506;SDS011;11930;53.076;18.250;2023-07-13T11:51:21;4.72;;;2.67;;
23506;SDS011;11930;53.076;18.250;2023-07-13T11:53:59;4.93;;;2.70;;
23506;SDS011;11930;53.076;18.250;2023-07-13T11:56:30;3.42;;;2.72;;
23506;SDS011;11930;53.076;18.250;2023-07-13T11:58:59;5.20;;;3.22;;
23506;SDS011;11930;53.076;18.250;2023-07-13T12:01:32;4.05;;;2.90;;
23506;SDS011;11930;53.076;18.250;2023-07-13T12:04:00;3.20;;;2.67;;
23506;SDS011;11930;53.076;18.250;2023-07-13T12:06:32;4.38;;;2.85;;
23506;SDS011;11930;53.076;18.250;2023-07-13T12:09:03;5.50;;;2.90;;
23506;SDS011;11930;53.076;18.250;2023-07-13T12:11:42;4.00;;;3.00;;
23506;SDS011;11930;53.076;18.250;2023-07-13T12:14:15;4.95;;;2.85;;
23506;SDS011;11930;53.076;18.250;2023-07-13T12:16:42;5.25;;;3.53;;
23506;SDS011;11930;53.076;18.250;2023-07-13T12:19:17;4.20;;;3.08;;
23506;SDS011;11930;53.076;18.250;2023-07-13T12:21:46;4.88;;;2.70;;
23506;SDS011;11930;53.076;18.250;2023-07-13T12:24:19;4.57;;;2.60;;
23506;SDS011;11930;53.076;18.250;2023-07-13T12:27:03;4.13;;;2.38;;
23506;SDS011;11930;53.076;18.250;2023-07-13T12:29:33;4.38;;;2.53;;
23506;SDS011;11930;53.076;18.250;2023-07-13T12:31:59;4.05;;;2.40;;
23506;SDS011;11930;53.076;18.250;2023-07-13T12:34:26;5.15;;;2.63;;
23506;SDS011;11930;53.076;18.250;2023-07-13T12:39:34;4.03;;;2.30;;
23506;SDS011;11930;53.076;18.250;2023-07-13T12:42:36;4.45;;;2.45;;
23506;SDS011;11930;53.076;18.250;2023-07-13T12:45:12;3.00;;;2.17;;
23506;SDS011;11930;53.076;18.250;2023-07-13T12:47:50;5.15;;;2.33;;
23506;SDS011;11930;53.076;18.250;2023-07-13T12:50:23;3.45;;;2.30;;
23506;SDS011;11930;53.076;18.250;2023-07-13T12:52:56;4.13;;;2.13;;
23506;SDS011;11930;53.076;18.250;2023-07-13T12:55:28;3.53;;;2.03;;
23506;SDS011;11930;53.076;18.250;2023-07-13T12:57:59;3.22;;;2.00;;
23506;SDS011;11930;53.076;18.250;2023-07-13T13:00:32;3.58;;;2.08;;
23506;SDS011;11930;53.076;18.250;2023-07-13T13:03:04;2.85;;;1.90;;
23506;SDS011;11930;53.076;18.250;2023-07-13T13:05:33;3.97;;;1.98;;
23506;SDS011;11930;53.076;18.250;2023-07-13T13:07:59;3.05;;;1.80;;
23506;SDS011;11930;53.076;18.250;2023-07-13T13:10:25;5.25;;;2.10;;
23506;SDS011;11930;53.076;18.250;2023-07-13T13:12:52;3.65;;;2.17;;
23506;SDS011;11930;53.076;18.250;2023-07-13T13:15:18;3.50;;;2.00;;
23506;SDS011;11930;53.076;18.250;2023-07-13T13:17:44;5.50;;;2.30;;
23506;SDS011;11930;53.076;18.250;2023-07-13T13:20:14;11.90;;;2.70;;
23506;SDS011;11930;53.076;18.250;2023-07-13T13:22:46;7.22;;;2.88;;
23506;SDS011;11930;53.076;18.250;2023-07-13T13:25:14;5.82;;;2.70;;
23506;SDS011;11930;53.076;18.250;2023-07-13T13:27:41;8.65;;;3.28;;
23506;SDS011;11930;53.076;18.250;2023-07-13T13:30:11;6.03;;;3.08;;
23506;SDS011;11930;53.076;18.250;2023-07-13T13:32:43;5.53;;;3.47;;
23506;SDS011;11930;53.076;18.250;2023-07-13T13:35:19;6.47;;;2.97;;
23506;SDS011;11930;53.076;18.250;2023-07-13T13:37:46;6.63;;;2.97;;
23506;SDS011;11930;53.076;18.250;2023-07-13T13:40:14;6.75;;;3.63;;
23506;SDS011;11930;53.076;18.250;2023-07-13T13:42:45;4.57;;;3.53;;
23506;SDS011;11930;53.076;18.250;2023-07-13T13:45:12;6.00;;;4.25;;
23506;SDS011;11930;53.076;18.250;2023-07-13T13:47:38;4.63;;;3.60;;
23506;SDS011;11930;53.076;18.250;2023-07-13T13:50:39;6.03;;;3.90;;
23506;SDS011;11930;53.076;18.250;2023-07-13T13:52:58;5.28;;;3.60;;
23506;SDS011;11930;53.076;18.250;2023-07-13T13:55:24;4.75;;;3.95;;
23506;SDS011;11930;53.076;18.250;2023-07-13T13:57:50;6.05;;;3.70;;
23506;SDS011;11930;53.076;18.250;2023-07-13T14:00:16;5.43;;;3.50;;
23506;SDS011;11930;53.076;18.250;2023-07-13T14:02:46;5.85;;;3.50;;
23506;SDS011;11930;53.076;18.250;2023-07-13T14:05:14;6.18;;;3.70;;
23506;SDS011;11930;53.076;18.250;2023-07-13T14:07:43;5.55;;;3.30;;
23506;SDS011;11930;53.076;18.250;2023-07-13T14:10:13;7.47;;;3.78;;
23506;SDS011;11930;53.076;18.250;2023-07-13T14:12:44;4.60;;;3.35;;
23506;SDS011;11930;53.076;18.250;2023-07-13T14:15:28;5.10;;;3.15;;
23506;SDS011;11930;53.076;18.250;2023-07-13T14:17:56;7.40;;;6.22;;
23506;SDS011;11930;53.076;18.250;2023-07-13T14:20:24;5.13;;;4.07;;
23506;SDS011;11930;53.076;18.250;2023-07-13T14:22:53;6.07;;;3.05;;
23506;SDS011;11930;53.076;18.250;2023-07-13T14:25:20;4.30;;;2.85;;
23506;SDS011;11930;53.076;18.250;2023-07-13T14:27:48;5.25;;;3.00;;
23506;SDS011;11930;53.076;18.250;2023-07-13T14:30:18;4.80;;;3.20;;
23506;SDS011;11930;53.076;18.250;2023-07-13T14:32:45;6.43;;;3.10;;
23506;SDS011;11930;53.076;18.250;2023-07-13T14:35:12;7.10;;;3.25;;
23506;SDS011;11930;53.076;18.250;2023-07-13T14:37:40;5.30;;;2.70;;
23506;SDS011;11930;53.076;18.250;2023-07-13T14:40:17;4.90;;;2.90;;
23506;SDS011;11930;53.076;18.250;2023-07-13T14:42:49;3.78;;;2.70;;
23506;SDS011;11930;53.076;18.250;2023-07-13T14:45:16;4.78;;;2.95;;
23506;SDS011;11930;53.076;18.250;2023-07-13T14:47:43;4.50;;;2.65;;
23506;SDS011;11930;53.076;18.250;2023-07-13T14:50:18;3.47;;;2.90;;
23506;SDS011;11930;53.076;18.250;2023-07-13T14:52:46;5.05;;;2.63;;
23506;SDS011;11930;53.076;18.250;2023-07-13T14:55:15;4.43;;;2.58;;
23506;SDS011;11930;53.076;18.250;2023-07-13T14:57:43;6.82;;;2.83;;
23506;SDS011;11930;53.076;18.250;2023-07-13T15:02:38;4.63;;;2.53;;
23506;SDS011;11930;53.076;18.250;2023-07-13T15:05:12;3.72;;;2.55;;
23506;SDS011;11930;53.076;18.250;2023-07-13T15:07:42;4.70;;;2.67;;
23506;SDS011;11930;53.076;18.250;2023-07-13T15:10:18;6.90;;;2.80;;
23506;SDS011;11930;53.076;18.250;2023-07-13T15:12:46;3.85;;;2.72;;
23506;SDS011;11930;53.076;18.250;2023-07-13T15:15:13;4.18;;;2.75;;